sensor_id;sensor_type;location;lat;lon;timestamp;P1;durP1;ratioP1;P2;durP2;ratioP2
13374;SDS011;6756;51.354;15.754;2022-12-08T00:02:50;6.83;;;4.47;;
13374;SDS011;6756;51.354;15.754;2022-12-08T00:06:51;8.73;;;3.87;;
13374;SDS011;6756;51.354;15.754;2022-12-08T00:11:12;5.37;;;3.97;;
13374;SDS011;6756;51.354;15.754;2022-12-08T00:15:13;7.87;;;3.77;;
13374;SDS011;6756;51.354;15.754;2022-12-08T00:19:14;8.60;;;3.90;;
13374;SDS011;6756;51.354;15.754;2022-12-08T00:23:14;4.97;;;3.47;;
13374;SDS011;6756;51.354;15.754;2022-12-08T00:27:16;5.13;;;3.83;;
13374;SDS011;6756;51.354;15.754;2022-12-08T00:31:17;4.67;;;4.23;;
13374;SDS011;6756;51.354;15.754;2022-12-08T00:35:18;5.57;;;3.80;;
13374;SDS011;6756;51.354;15.754;2022-12-08T00:39:18;4.60;;;3.63;;
13374;SDS011;6756;51.354;15.754;2022-12-08T00:43:19;8.13;;;3.90;;
13374;SDS011;6756;51.354;15.754;2022-12-08T00:47:20;4.67;;;3.93;;
13374;SDS011;6756;51.354;15.754;2022-12-08T00:51:21;4.63;;;3.57;;
13374;SDS011;6756;51.354;15.754;2022-12-08T00:55:22;6.07;;;4.50;;
13374;SDS011;6756;51.354;15.754;2022-12-08T00:59:23;5.30;;;3.47;;
13374;SDS011;6756;51.354;15.754;2022-12-08T01:03:23;5.23;;;3.73;;
13374;SDS011;6756;51.354;15.754;2022-12-08T01:07:24;7.30;;;4.40;;
13374;SDS011;6756;51.354;15.754;2022-12-08T01:11:25;6.70;;;4.20;;
13374;SDS011;6756;51.354;15.754;2022-12-08T01:15:26;7.20;;;4.90;;
13374;SDS011;6756;51.354;15.754;2022-12-08T01:19:27;7.93;;;4.97;;
13374;SDS011;6756;51.354;15.754;2022-12-08T01:23:28;6.80;;;5.47;;
13374;SDS011;6756;51.354;15.754;2022-12-08T01:27:29;8.17;;;5.80;;
13374;SDS011;6756;51.354;15.754;2022-12-08T01:31:30;7.63;;;5.10;;
13374;SDS011;6756;51.354;15.754;2022-12-08T01:35:32;9.00;;;5.63;;
13374;SDS011;6756;51.354;15.754;2022-12-08T01:39:33;8.27;;;5.20;;
13374;SDS011;6756;51.354;15.754;2022-12-08T01:47:56;6.63;;;5.47;;
13374;SDS011;6756;51.354;15.754;2022-12-08T01:52:04;6.43;;;4.90;;
13374;SDS011;6756;51.354;15.754;2022-12-08T01:56:14;8.47;;;5.20;;
13374;SDS011;6756;51.354;15.754;2022-12-08T02:00:32;9.83;;;5.20;;
13374;SDS011;6756;51.354;15.754;2022-12-08T02:04:33;7.20;;;5.60;;
13374;SDS011;6756;51.354;15.754;2022-12-08T02:08:33;7.57;;;5.47;;
13374;SDS011;6756;51.354;15.754;2022-12-08T02:12:37;8.73;;;5.97;;
13374;SDS011;6756;51.354;15.754;2022-12-08T02:25:41;6.87;;;5.43;;
13374;SDS011;6756;51.354;15.754;2022-12-08T02:30:12;6.43;;;5.30;;
13374;SDS011;6756;51.354;15.754;2022-12-08T02:38:42;7.20;;;5.37;;
13374;SDS011;6756;51.354;15.754;2022-12-08T02:42:50;8.13;;;5.03;;
13374;SDS011;6756;51.354;15.754;2022-12-08T02:47:14;7.70;;;5.50;;
13374;SDS011;6756;51.354;15.754;2022-12-08T02:51:18;7.70;;;4.60;;
13374;SDS011;6756;51.354;15.754;2022-12-08T02:55:21;6.70;;;4.93;;
13374;SDS011;6756;51.354;15.754;2022-12-08T03:03:50;5.43;;;4.17;;
13374;SDS011;6756;51.354;15.754;2022-12-08T03:08:26;7.13;;;4.93;;
13374;SDS011;6756;51.354;15.754;2022-12-08T03:12:36;7.73;;;5.17;;
13374;SDS011;6756;51.354;15.754;2022-12-08T03:16:48;7.07;;;4.87;;
13374;SDS011;6756;51.354;15.754;2022-12-08T03:20:52;6.73;;;4.90;;
13374;SDS011;6756;51.354;15.754;2022-12-08T03:24:53;5.87;;;4.43;;
13374;SDS011;6756;51.354;15.754;2022-12-08T03:28:56;7.37;;;4.77;;
13374;SDS011;6756;51.354;15.754;2022-12-08T03:33:01;7.17;;;5.23;;
13374;SDS011;6756;51.354;15.754;2022-12-08T03:37:06;8.57;;;5.50;;
13374;SDS011;6756;51.354;15.754;2022-12-08T03:41:07;10.27;;;5.60;;
13374;SDS011;6756;51.354;15.754;2022-12-08T03:45:20;10.93;;;6.97;;
13374;SDS011;6756;51.354;15.754;2022-12-08T03:49:23;7.80;;;5.73;;
13374;SDS011;6756;51.354;15.754;2022-12-08T03:53:24;6.77;;;5.47;;
13374;SDS011;6756;51.354;15.754;2022-12-08T03:57:25;7.53;;;5.67;;
13374;SDS011;6756;51.354;15.754;2022-12-08T04:01:25;6.73;;;4.80;;
13374;SDS011;6756;51.354;15.754;2022-12-08T04:05:26;12.07;;;5.77;;
13374;SDS011;6756;51.354;15.754;2022-12-08T04:09:27;6.93;;;5.20;;
13374;SDS011;6756;51.354;15.754;2022-12-08T04:13:28;6.17;;;4.97;;
13374;SDS011;6756;51.354;15.754;2022-12-08T04:17:29;10.37;;;5.30;;
13374;SDS011;6756;51.354;15.754;2022-12-08T04:21:30;9.43;;;5.30;;
13374;SDS011;6756;51.354;15.754;2022-12-08T04:25:31;7.90;;;5.10;;
13374;SDS011;6756;51.354;15.754;2022-12-08T04:29:32;5.23;;;4.50;;
13374;SDS011;6756;51.354;15.754;2022-12-08T04:33:32;8.87;;;5.00;;
13374;SDS011;6756;51.354;15.754;2022-12-08T04:37:34;6.13;;;4.73;;
13374;SDS011;6756;51.354;15.754;2022-12-08T04:41:35;5.13;;;4.17;;
13374;SDS011;6756;51.354;15.754;2022-12-08T04:45:38;6.90;;;4.87;;
13374;SDS011;6756;51.354;15.754;2022-12-08T04:49:39;4.57;;;3.97;;
13374;SDS011;6756;51.354;15.754;2022-12-08T04:53:40;4.70;;;3.70;;
13374;SDS011;6756;51.354;15.754;2022-12-08T04:57:41;7.27;;;4.37;;
13374;SDS011;6756;51.354;15.754;2022-12-08T05:01:42;5.77;;;3.97;;
13374;SDS011;6756;51.354;15.754;2022-12-08T05:05:43;7.03;;;4.60;;
13374;SDS011;6756;51.354;15.754;2022-12-08T05:09:43;5.97;;;4.10;;
13374;SDS011;6756;51.354;15.754;2022-12-08T05:13:45;7.77;;;4.87;;
13374;SDS011;6756;51.354;15.754;2022-12-08T05:17:46;5.93;;;4.60;;
13374;SDS011;6756;51.354;15.754;2022-12-08T05:21:47;8.37;;;5.37;;
13374;SDS011;6756;51.354;15.754;2022-12-08T05:25:47;8.87;;;5.17;;
13374;SDS011;6756;51.354;15.754;2022-12-08T05:29:48;5.80;;;4.43;;
13374;SDS011;6756;51.354;15.754;2022-12-08T05:33:50;7.87;;;5.60;;
13374;SDS011;6756;51.354;15.754;2022-12-08T05:37:51;7.57;;;5.27;;
13374;SDS011;6756;51.354;15.754;2022-12-08T05:41:53;7.57;;;4.57;;
13374;SDS011;6756;51.354;15.754;2022-12-08T05:45:53;7.53;;;4.60;;
13374;SDS011;6756;51.354;15.754;2022-12-08T05:49:54;7.83;;;4.87;;
13374;SDS011;6756;51.354;15.754;2022-12-08T05:53:55;5.67;;;5.07;;
13374;SDS011;6756;51.354;15.754;2022-12-08T05:57:57;6.03;;;4.47;;
13374;SDS011;6756;51.354;15.754;2022-12-08T06:01:57;6.97;;;4.97;;
13374;SDS011;6756;51.354;15.754;2022-12-08T06:05:58;5.87;;;4.60;;
13374;SDS011;6756;51.354;15.754;2022-12-08T06:09:59;6.40;;;4.30;;
13374;SDS011;6756;51.354;15.754;2022-12-08T06:14:00;6.63;;;4.97;;
13374;SDS011;6756;51.354;15.754;2022-12-08T06:18:01;7.73;;;5.30;;
13374;SDS011;6756;51.354;15.754;2022-12-08T06:22:02;7.73;;;5.50;;
13374;SDS011;6756;51.354;15.754;2022-12-08T06:26:07;8.80;;;5.87;;
13374;SDS011;6756;51.354;15.754;2022-12-08T06:30:09;8.60;;;6.23;;
13374;SDS011;6756;51.354;15.754;2022-12-08T06:34:10;9.17;;;6.27;;
13374;SDS011;6756;51.354;15.754;2022-12-08T06:38:11;8.57;;;5.93;;
13374;SDS011;6756;51.354;15.754;2022-12-08T06:42:12;9.60;;;5.60;;
13374;SDS011;6756;51.354;15.754;2022-12-08T06:46:31;7.53;;;4.93;;
13374;SDS011;6756;51.354;15.754;2022-12-08T06:50:32;6.37;;;4.80;;
13374;SDS011;6756;51.354;15.754;2022-12-08T06:54:34;8.37;;;5.30;;
13374;SDS011;6756;51.354;15.754;2022-12-08T06:58:34;5.67;;;4.57;;
13374;SDS011;6756;51.354;15.754;2022-12-08T07:02:36;8.67;;;5.30;;
13374;SDS011;6756;51.354;15.754;2022-12-08T07:06:37;7.53;;;5.50;;
13374;SDS011;6756;51.354;15.754;2022-12-08T07:10:38;8.67;;;5.10;;
13374;SDS011;6756;51.354;15.754;2022-12-08T07:14:39;7.50;;;4.83;;
13374;SDS011;6756;51.354;15.754;2022-12-08T07:18:40;9.57;;;6.40;;
13374;SDS011;6756;51.354;15.754;2022-12-08T07:22:47;7.03;;;5.53;;
13374;SDS011;6756;51.354;15.754;2022-12-08T07:26:49;7.10;;;5.23;;
13374;SDS011;6756;51.354;15.754;2022-12-08T07:30:49;8.10;;;5.17;;
13374;SDS011;6756;51.354;15.754;2022-12-08T07:34:50;6.87;;;5.27;;
13374;SDS011;6756;51.354;15.754;2022-12-08T07:38:51;6.63;;;5.33;;
13374;SDS011;6756;51.354;15.754;2022-12-08T07:42:53;6.20;;;4.90;;
13374;SDS011;6756;51.354;15.754;2022-12-08T07:46:53;8.63;;;6.47;;
13374;SDS011;6756;51.354;15.754;2022-12-08T07:51:01;7.27;;;6.03;;
13374;SDS011;6756;51.354;15.754;2022-12-08T07:55:03;7.33;;;5.47;;
13374;SDS011;6756;51.354;15.754;2022-12-08T07:59:04;8.53;;;6.13;;
13374;SDS011;6756;51.354;15.754;2022-12-08T08:03:05;8.90;;;5.83;;
13374;SDS011;6756;51.354;15.754;2022-12-08T08:07:07;8.07;;;6.10;;
13374;SDS011;6756;51.354;15.754;2022-12-08T08:11:08;8.43;;;6.20;;
13374;SDS011;6756;51.354;15.754;2022-12-08T08:15:09;8.20;;;6.53;;
13374;SDS011;6756;51.354;15.754;2022-12-08T08:19:10;8.17;;;5.90;;
13374;SDS011;6756;51.354;15.754;2022-12-08T08:23:11;9.30;;;6.37;;
13374;SDS011;6756;51.354;15.754;2022-12-08T08:27:12;9.17;;;6.90;;
13374;SDS011;6756;51.354;15.754;2022-12-08T08:31:13;10.13;;;6.47;;
13374;SDS011;6756;51.354;15.754;2022-12-08T08:35:14;9.40;;;6.50;;
13374;SDS011;6756;51.354;15.754;2022-12-08T08:39:15;9.60;;;7.10;;
13374;SDS011;6756;51.354;15.754;2022-12-08T08:43:16;8.57;;;7.10;;
13374;SDS011;6756;51.354;15.754;2022-12-08T08:47:29;9.17;;;7.37;;
13374;SDS011;6756;51.354;15.754;2022-12-08T08:51:30;11.33;;;7.47;;
13374;SDS011;6756;51.354;15.754;2022-12-08T08:55:31;8.07;;;7.27;;
13374;SDS011;6756;51.354;15.754;2022-12-08T08:59:32;7.60;;;6.80;;
13374;SDS011;6756;51.354;15.754;2022-12-08T09:03:33;7.17;;;6.13;;
13374;SDS011;6756;51.354;15.754;2022-12-08T09:07:34;10.13;;;6.67;;
13374;SDS011;6756;51.354;15.754;2022-12-08T09:11:35;6.67;;;5.63;;
13374;SDS011;6756;51.354;15.754;2022-12-08T09:15:36;6.63;;;5.57;;
13374;SDS011;6756;51.354;15.754;2022-12-08T09:19:37;6.63;;;5.80;;
13374;SDS011;6756;51.354;15.754;2022-12-08T09:23:38;9.80;;;6.60;;
13374;SDS011;6756;51.354;15.754;2022-12-08T09:27:39;7.17;;;5.83;;
13374;SDS011;6756;51.354;15.754;2022-12-08T09:31:40;7.53;;;6.13;;
13374;SDS011;6756;51.354;15.754;2022-12-08T09:35:41;8.00;;;6.20;;
13374;SDS011;6756;51.354;15.754;2022-12-08T09:39:42;10.17;;;6.63;;
13374;SDS011;6756;51.354;15.754;2022-12-08T09:44:04;7.80;;;6.10;;
13374;SDS011;6756;51.354;15.754;2022-12-08T09:48:18;7.70;;;5.90;;
13374;SDS011;6756;51.354;15.754;2022-12-08T09:52:25;7.10;;;5.10;;
13374;SDS011;6756;51.354;15.754;2022-12-08T09:56:31;5.97;;;5.37;;
13374;SDS011;6756;51.354;15.754;2022-12-08T10:00:35;6.33;;;5.23;;
13374;SDS011;6756;51.354;15.754;2022-12-08T10:04:36;6.73;;;5.47;;
13374;SDS011;6756;51.354;15.754;2022-12-08T10:08:42;6.73;;;5.50;;
13374;SDS011;6756;51.354;15.754;2022-12-08T10:17:08;7.00;;;5.97;;
13374;SDS011;6756;51.354;15.754;2022-12-08T10:21:17;6.47;;;5.53;;
13374;SDS011;6756;51.354;15.754;2022-12-08T10:25:24;7.30;;;6.07;;
13374;SDS011;6756;51.354;15.754;2022-12-08T10:29:32;7.57;;;6.10;;
13374;SDS011;6756;51.354;15.754;2022-12-08T10:33:33;7.57;;;6.30;;
13374;SDS011;6756;51.354;15.754;2022-12-08T10:37:34;8.73;;;5.97;;
13374;SDS011;6756;51.354;15.754;2022-12-08T10:41:35;7.60;;;5.63;;
13374;SDS011;6756;51.354;15.754;2022-12-08T10:45:39;7.37;;;4.97;;
13374;SDS011;6756;51.354;15.754;2022-12-08T10:49:40;8.40;;;5.10;;
13374;SDS011;6756;51.354;15.754;2022-12-08T10:53:44;9.80;;;5.27;;
13374;SDS011;6756;51.354;15.754;2022-12-08T10:57:46;5.30;;;4.80;;
13374;SDS011;6756;51.354;15.754;2022-12-08T11:01:51;8.97;;;5.37;;
13374;SDS011;6756;51.354;15.754;2022-12-08T11:06:00;5.97;;;4.60;;
13374;SDS011;6756;51.354;15.754;2022-12-08T11:10:19;5.30;;;4.67;;
13374;SDS011;6756;51.354;15.754;2022-12-08T11:14:31;5.53;;;4.50;;
13374;SDS011;6756;51.354;15.754;2022-12-08T11:18:39;6.70;;;4.70;;
13374;SDS011;6756;51.354;15.754;2022-12-08T11:22:42;6.03;;;5.13;;
13374;SDS011;6756;51.354;15.754;2022-12-08T11:26:49;7.23;;;4.93;;
13374;SDS011;6756;51.354;15.754;2022-12-08T11:35:28;5.60;;;4.73;;
13374;SDS011;6756;51.354;15.754;2022-12-08T11:39:36;6.63;;;5.27;;
13374;SDS011;6756;51.354;15.754;2022-12-08T11:48:36;5.73;;;4.53;;
13374;SDS011;6756;51.354;15.754;2022-12-08T11:52:46;7.20;;;4.90;;
13374;SDS011;6756;51.354;15.754;2022-12-08T11:56:51;7.07;;;5.17;;
13374;SDS011;6756;51.354;15.754;2022-12-08T12:00:55;7.27;;;5.40;;
13374;SDS011;6756;51.354;15.754;2022-12-08T12:05:14;4.97;;;4.30;;
13374;SDS011;6756;51.354;15.754;2022-12-08T12:09:24;6.50;;;4.70;;
13374;SDS011;6756;51.354;15.754;2022-12-08T12:22:14;5.67;;;4.67;;
13374;SDS011;6756;51.354;15.754;2022-12-08T12:26:17;8.37;;;5.00;;
13374;SDS011;6756;51.354;15.754;2022-12-08T12:30:34;7.30;;;4.90;;
13374;SDS011;6756;51.354;15.754;2022-12-08T12:38:52;5.17;;;4.53;;
13374;SDS011;6756;51.354;15.754;2022-12-08T12:47:03;5.60;;;3.90;;
13374;SDS011;6756;51.354;15.754;2022-12-08T12:55:51;5.00;;;4.00;;
13374;SDS011;6756;51.354;15.754;2022-12-08T13:04:03;7.27;;;4.30;;
13374;SDS011;6756;51.354;15.754;2022-12-08T13:08:15;4.93;;;4.40;;
13374;SDS011;6756;51.354;15.754;2022-12-08T13:12:22;5.13;;;4.27;;
13374;SDS011;6756;51.354;15.754;2022-12-08T13:16:24;5.40;;;4.47;;
13374;SDS011;6756;51.354;15.754;2022-12-08T13:20:30;6.93;;;4.63;;
13374;SDS011;6756;51.354;15.754;2022-12-08T13:24:42;6.57;;;4.97;;
13374;SDS011;6756;51.354;15.754;2022-12-08T13:33:00;6.93;;;4.60;;
13374;SDS011;6756;51.354;15.754;2022-12-08T13:41:15;6.77;;;5.60;;
13374;SDS011;6756;51.354;15.754;2022-12-08T13:45:20;7.33;;;5.37;;
13374;SDS011;6756;51.354;15.754;2022-12-08T13:49:26;7.00;;;5.93;;
13374;SDS011;6756;51.354;15.754;2022-12-08T13:53:34;7.07;;;6.03;;
13374;SDS011;6756;51.354;15.754;2022-12-08T13:57:38;6.00;;;4.97;;
13374;SDS011;6756;51.354;15.754;2022-12-08T14:01:42;6.10;;;5.27;;
13374;SDS011;6756;51.354;15.754;2022-12-08T14:05:47;6.47;;;5.23;;
13374;SDS011;6756;51.354;15.754;2022-12-08T14:09:49;6.43;;;5.10;;
13374;SDS011;6756;51.354;15.754;2022-12-08T14:13:51;7.57;;;5.33;;
13374;SDS011;6756;51.354;15.754;2022-12-08T14:17:54;7.70;;;5.60;;
13374;SDS011;6756;51.354;15.754;2022-12-08T14:21:58;7.87;;;5.40;;
13374;SDS011;6756;51.354;15.754;2022-12-08T14:26:11;6.73;;;5.63;;
13374;SDS011;6756;51.354;15.754;2022-12-08T14:30:15;7.63;;;5.70;;
13374;SDS011;6756;51.354;15.754;2022-12-08T14:34:18;7.20;;;5.30;;
13374;SDS011;6756;51.354;15.754;2022-12-08T14:38:19;7.37;;;5.60;;
13374;SDS011;6756;51.354;15.754;2022-12-08T14:42:24;6.53;;;4.57;;
13374;SDS011;6756;51.354;15.754;2022-12-08T14:46:26;7.63;;;5.13;;
13374;SDS011;6756;51.354;15.754;2022-12-08T14:50:40;6.83;;;5.17;;
13374;SDS011;6756;51.354;15.754;2022-12-08T14:54:53;7.57;;;5.33;;
13374;SDS011;6756;51.354;15.754;2022-12-08T15:03:05;7.50;;;5.30;;
13374;SDS011;6756;51.354;15.754;2022-12-08T15:15:22;8.47;;;5.50;;
13374;SDS011;6756;51.354;15.754;2022-12-08T15:23:30;5.80;;;4.57;;
13374;SDS011;6756;51.354;15.754;2022-12-08T15:27:33;5.23;;;4.57;;
13374;SDS011;6756;51.354;15.754;2022-12-08T15:31:35;7.83;;;5.00;;
13374;SDS011;6756;51.354;15.754;2022-12-08T15:35:36;6.53;;;5.23;;
13374;SDS011;6756;51.354;15.754;2022-12-08T15:39:37;8.67;;;5.10;;
13374;SDS011;6756;51.354;15.754;2022-12-08T15:43:38;6.83;;;4.77;;
13374;SDS011;6756;51.354;15.754;2022-12-08T15:47:39;7.63;;;4.70;;
13374;SDS011;6756;51.354;15.754;2022-12-08T15:51:43;6.70;;;4.83;;
13374;SDS011;6756;51.354;15.754;2022-12-08T15:55:44;8.70;;;4.90;;
13374;SDS011;6756;51.354;15.754;2022-12-08T15:59:46;7.23;;;5.30;;
13374;SDS011;6756;51.354;15.754;2022-12-08T16:03:47;8.07;;;5.83;;
13374;SDS011;6756;51.354;15.754;2022-12-08T16:07:49;8.17;;;6.20;;
13374;SDS011;6756;51.354;15.754;2022-12-08T16:11:50;9.90;;;6.17;;
13374;SDS011;6756;51.354;15.754;2022-12-08T16:16:10;11.83;;;7.60;;
13374;SDS011;6756;51.354;15.754;2022-12-08T16:20:19;14.67;;;8.43;;
13374;SDS011;6756;51.354;15.754;2022-12-08T16:24:21;14.90;;;9.10;;
13374;SDS011;6756;51.354;15.754;2022-12-08T16:28:22;12.97;;;8.73;;
13374;SDS011;6756;51.354;15.754;2022-12-08T16:32:23;16.13;;;8.20;;
13374;SDS011;6756;51.354;15.754;2022-12-08T16:36:25;12.17;;;8.43;;
13374;SDS011;6756;51.354;15.754;2022-12-08T16:40:26;12.70;;;8.17;;
13374;SDS011;6756;51.354;15.754;2022-12-08T16:44:27;16.10;;;9.80;;
13374;SDS011;6756;51.354;15.754;2022-12-08T16:48:27;13.80;;;9.00;;
13374;SDS011;6756;51.354;15.754;2022-12-08T16:52:28;17.07;;;9.47;;
13374;SDS011;6756;51.354;15.754;2022-12-08T16:56:29;14.77;;;9.23;;
13374;SDS011;6756;51.354;15.754;2022-12-08T17:00:31;18.20;;;8.97;;
13374;SDS011;6756;51.354;15.754;2022-12-08T17:04:35;14.90;;;8.73;;
13374;SDS011;6756;51.354;15.754;2022-12-08T17:08:36;14.70;;;9.90;;
13374;SDS011;6756;51.354;15.754;2022-12-08T17:12:38;17.47;;;9.57;;
13374;SDS011;6756;51.354;15.754;2022-12-08T17:16:40;15.80;;;10.17;;
13374;SDS011;6756;51.354;15.754;2022-12-08T17:20:41;17.97;;;9.60;;
13374;SDS011;6756;51.354;15.754;2022-12-08T17:24:42;17.67;;;10.53;;
13374;SDS011;6756;51.354;15.754;2022-12-08T17:28:43;16.23;;;9.77;;
13374;SDS011;6756;51.354;15.754;2022-12-08T17:32:44;14.77;;;9.90;;
13374;SDS011;6756;51.354;15.754;2022-12-08T17:36:45;14.50;;;9.47;;
13374;SDS011;6756;51.354;15.754;2022-12-08T17:40:46;13.07;;;9.33;;
13374;SDS011;6756;51.354;15.754;2022-12-08T17:44:47;19.20;;;9.90;;
13374;SDS011;6756;51.354;15.754;2022-12-08T17:48:48;14.03;;;8.80;;
13374;SDS011;6756;51.354;15.754;2022-12-08T17:52:49;15.90;;;9.87;;
13374;SDS011;6756;51.354;15.754;2022-12-08T17:56:50;15.03;;;10.67;;
13374;SDS011;6756;51.354;15.754;2022-12-08T18:00:51;15.23;;;9.40;;
13374;SDS011;6756;51.354;15.754;2022-12-08T18:04:52;16.30;;;10.53;;
13374;SDS011;6756;51.354;15.754;2022-12-08T18:08:54;17.43;;;10.33;;
13374;SDS011;6756;51.354;15.754;2022-12-08T18:12:56;16.80;;;9.60;;
13374;SDS011;6756;51.354;15.754;2022-12-08T18:16:57;15.70;;;10.77;;
13374;SDS011;6756;51.354;15.754;2022-12-08T18:20:58;17.03;;;10.93;;
13374;SDS011;6756;51.354;15.754;2022-12-08T18:24:59;18.13;;;11.00;;
13374;SDS011;6756;51.354;15.754;2022-12-08T18:29:00;17.53;;;11.10;;
13374;SDS011;6756;51.354;15.754;2022-12-08T18:33:04;16.27;;;10.57;;
13374;SDS011;6756;51.354;15.754;2022-12-08T18:37:05;15.93;;;11.27;;
13374;SDS011;6756;51.354;15.754;2022-12-08T18:41:11;17.23;;;10.50;;
13374;SDS011;6756;51.354;15.754;2022-12-08T18:45:15;13.07;;;8.70;;
13374;SDS011;6756;51.354;15.754;2022-12-08T18:49:20;10.60;;;8.00;;
13374;SDS011;6756;51.354;15.754;2022-12-08T18:53:21;12.80;;;8.87;;
13374;SDS011;6756;51.354;15.754;2022-12-08T18:57:22;11.00;;;8.03;;
13374;SDS011;6756;51.354;15.754;2022-12-08T19:01:23;10.63;;;7.80;;
13374;SDS011;6756;51.354;15.754;2022-12-08T19:05:24;10.13;;;7.47;;
13374;SDS011;6756;51.354;15.754;2022-12-08T19:09:26;12.03;;;7.20;;
13374;SDS011;6756;51.354;15.754;2022-12-08T19:13:28;9.80;;;6.80;;
13374;SDS011;6756;51.354;15.754;2022-12-08T19:17:29;9.27;;;7.00;;
13374;SDS011;6756;51.354;15.754;2022-12-08T19:21:30;8.83;;;6.33;;
13374;SDS011;6756;51.354;15.754;2022-12-08T19:25:32;8.77;;;6.77;;
13374;SDS011;6756;51.354;15.754;2022-12-08T19:29:33;9.47;;;6.77;;
13374;SDS011;6756;51.354;15.754;2022-12-08T19:33:35;9.87;;;6.90;;
13374;SDS011;6756;51.354;15.754;2022-12-08T19:37:36;8.17;;;6.27;;
13374;SDS011;6756;51.354;15.754;2022-12-08T19:41:37;9.60;;;6.53;;
13374;SDS011;6756;51.354;15.754;2022-12-08T19:45:56;10.53;;;6.53;;
13374;SDS011;6756;51.354;15.754;2022-12-08T19:49:57;10.13;;;6.43;;
13374;SDS011;6756;51.354;15.754;2022-12-08T19:54:17;7.70;;;5.90;;
13374;SDS011;6756;51.354;15.754;2022-12-08T19:58:18;8.27;;;6.17;;
13374;SDS011;6756;51.354;15.754;2022-12-08T20:02:19;8.23;;;6.10;;
13374;SDS011;6756;51.354;15.754;2022-12-08T20:06:19;9.80;;;6.73;;
13374;SDS011;6756;51.354;15.754;2022-12-08T20:10:29;8.57;;;6.23;;
13374;SDS011;6756;51.354;15.754;2022-12-08T20:14:35;8.60;;;6.70;;
13374;SDS011;6756;51.354;15.754;2022-12-08T20:18:36;10.50;;;7.30;;
13374;SDS011;6756;51.354;15.754;2022-12-08T20:22:38;9.27;;;6.57;;
13374;SDS011;6756;51.354;15.754;2022-12-08T20:26:40;9.40;;;6.23;;
13374;SDS011;6756;51.354;15.754;2022-12-08T20:30:41;9.33;;;6.60;;
13374;SDS011;6756;51.354;15.754;2022-12-08T20:34:45;9.23;;;5.90;;
13374;SDS011;6756;51.354;15.754;2022-12-08T20:38:47;9.87;;;6.13;;
13374;SDS011;6756;51.354;15.754;2022-12-08T20:42:49;7.60;;;5.37;;
13374;SDS011;6756;51.354;15.754;2022-12-08T20:46:51;6.00;;;5.10;;
13374;SDS011;6756;51.354;15.754;2022-12-08T20:50:52;7.03;;;5.23;;
13374;SDS011;6756;51.354;15.754;2022-12-08T20:54:53;6.53;;;5.20;;
13374;SDS011;6756;51.354;15.754;2022-12-08T20:58:55;8.27;;;6.37;;
13374;SDS011;6756;51.354;15.754;2022-12-08T21:02:55;10.37;;;7.00;;
13374;SDS011;6756;51.354;15.754;2022-12-08T21:06:57;9.97;;;6.40;;
13374;SDS011;6756;51.354;15.754;2022-12-08T21:10:58;9.17;;;5.93;;
13374;SDS011;6756;51.354;15.754;2022-12-08T21:14:59;9.63;;;6.60;;
13374;SDS011;6756;51.354;15.754;2022-12-08T21:19:01;9.87;;;6.93;;
13374;SDS011;6756;51.354;15.754;2022-12-08T21:23:03;9.00;;;6.57;;
13374;SDS011;6756;51.354;15.754;2022-12-08T21:27:04;10.93;;;7.20;;
13374;SDS011;6756;51.354;15.754;2022-12-08T21:31:06;9.50;;;6.87;;
13374;SDS011;6756;51.354;15.754;2022-12-08T21:35:11;10.03;;;6.70;;
13374;SDS011;6756;51.354;15.754;2022-12-08T21:39:12;10.77;;;7.30;;
13374;SDS011;6756;51.354;15.754;2022-12-08T21:43:13;10.43;;;6.40;;
13374;SDS011;6756;51.354;15.754;2022-12-08T21:47:14;9.23;;;7.00;;
13374;SDS011;6756;51.354;15.754;2022-12-08T21:51:14;9.13;;;6.43;;
13374;SDS011;6756;51.354;15.754;2022-12-08T21:55:16;10.00;;;6.57;;
13374;SDS011;6756;51.354;15.754;2022-12-08T21:59:19;10.90;;;6.27;;
13374;SDS011;6756;51.354;15.754;2022-12-08T22:03:20;10.17;;;7.00;;
13374;SDS011;6756;51.354;15.754;2022-12-08T22:07:21;12.80;;;6.80;;
13374;SDS011;6756;51.354;15.754;2022-12-08T22:11:22;9.60;;;6.70;;
13374;SDS011;6756;51.354;15.754;2022-12-08T22:15:23;13.53;;;6.87;;
13374;SDS011;6756;51.354;15.754;2022-12-08T22:19:24;9.23;;;6.30;;
13374;SDS011;6756;51.354;15.754;2022-12-08T22:23:25;9.83;;;6.80;;
13374;SDS011;6756;51.354;15.754;2022-12-08T22:27:27;10.30;;;7.07;;
13374;SDS011;6756;51.354;15.754;2022-12-08T22:31:28;11.77;;;6.73;;
13374;SDS011;6756;51.354;15.754;2022-12-08T22:35:29;10.63;;;6.50;;
13374;SDS011;6756;51.354;15.754;2022-12-08T22:39:30;10.20;;;6.13;;
13374;SDS011;6756;51.354;15.754;2022-12-08T22:43:31;9.53;;;6.73;;
13374;SDS011;6756;51.354;15.754;2022-12-08T22:47:33;10.57;;;7.20;;
13374;SDS011;6756;51.354;15.754;2022-12-08T22:51:34;15.20;;;8.30;;
13374;SDS011;6756;51.354;15.754;2022-12-08T22:55:40;12.80;;;7.67;;
13374;SDS011;6756;51.354;15.754;2022-12-08T22:59:42;10.70;;;7.50;;
13374;SDS011;6756;51.354;15.754;2022-12-08T23:03:43;9.50;;;6.93;;
13374;SDS011;6756;51.354;15.754;2022-12-08T23:07:43;10.97;;;7.03;;
13374;SDS011;6756;51.354;15.754;2022-12-08T23:11:44;13.50;;;7.47;;
13374;SDS011;6756;51.354;15.754;2022-12-08T23:15:45;13.43;;;8.53;;
13374;SDS011;6756;51.354;15.754;2022-12-08T23:19:47;13.73;;;7.67;;
13374;SDS011;6756;51.354;15.754;2022-12-08T23:23:48;11.47;;;7.27;;
13374;SDS011;6756;51.354;15.754;2022-12-08T23:27:49;10.63;;;7.47;;
13374;SDS011;6756;51.354;15.754;2022-12-08T23:31:50;12.20;;;8.13;;
13374;SDS011;6756;51.354;15.754;2022-12-08T23:35:55;11.73;;;7.87;;
13374;SDS011;6756;51.354;15.754;2022-12-08T23:39:56;12.53;;;8.30;;
13374;SDS011;6756;51.354;15.754;2022-12-08T23:43:57;10.83;;;7.83;;
13374;SDS011;6756;51.354;15.754;2022-12-08T23:47:58;10.10;;;7.30;;
13374;SDS011;6756;51.354;15.754;2022-12-08T23:51:59;9.87;;;6.93;;
13374;SDS011;6756;51.354;15.754;2022-12-08T23:56:04;11.47;;;7.43;;
